Time;durP1;ratioP1;P1;durP2;ratioP2;P2;SDS_P1;SDS_P2;PMS_P1;PMS_P2;Temp;Humidity;BMP_temperature;BMP_pressure;BME280_temperature;BME280_humidity;BME280_pressure;Samples;Min_cycle;Max_cycle;Signal;HPM_P1;HPM_P2
2023/08/09 00:01:17;;;;;;;;;;;10.70;79.80;;;;;;6254379;22;20330;-90
2023/08/09 00:03:42;;;;;;;;;;;10.70;80.10;;;;;;6251672;22;19943;-91
2023/08/09 00:06:11;;;;;;;;;;;10.70;79.80;;;;;;6253393;22;19919;-91
2023/08/09 00:08:37;;;;;;;;;;;10.70;79.90;;;;;;6245670;22;19927;-90
2023/08/09 00:11:02;;;;;;;;;;;10.70;79.70;;;;;;6253735;22;19919;-90
2023/08/09 00:13:31;;;;;;;;;;;10.70;79.70;;;;;;6252583;22;20360;-90
2023/08/09 00:15:57;;;;;;;;;;;10.60;79.80;;;;;;6228891;22;19919;-91
2023/08/09 00:18:23;;;;;;;;;;;10.60;79.80;;;;;;6243848;22;19921;-90
2023/08/09 00:20:48;;;;;;;;;;;10.60;80.10;;;;;;6228344;22;20345;-90
2023/08/09 00:23:14;;;;;;;;;;;10.60;80.00;;;;;;6250950;22;19947;-91
2023/08/09 00:25:41;;;;;;;;;;;10.60;79.80;;;;;;6253738;22;19976;-91
2023/08/09 00:28:07;;;;;;;;;;;10.60;79.70;;;;;;6244324;22;19925;-91
2023/08/09 00:30:32;;;;;;;;;;;10.50;79.70;;;;;;6228543;22;20274;-90
2023/08/09 00:32:58;;;;;;;;;;;10.60;79.80;;;;;;6252131;22;19953;-90
2023/08/09 00:35:24;;;;;;;;;;;10.50;79.90;;;;;;6253461;22;19919;-91
2023/08/09 00:37:50;;;;;;;;;;;10.50;79.80;;;;;;6242400;22;20284;-90
2023/08/09 00:40:15;;;;;;;;;;;10.50;79.80;;;;;;6251387;22;19949;-90
2023/08/09 00:42:41;;;;;;;;;;;10.50;79.70;;;;;;6272770;22;20447;-90
2023/08/09 00:45:07;;;;;;;;;;;10.50;79.70;;;;;;6252384;22;20245;-90
2023/08/09 00:47:34;;;;;;;;;;;10.60;79.50;;;;;;6243929;22;19922;-90
2023/08/09 00:50:00;;;;;;;;;;;10.50;79.60;;;;;;6253370;22;20379;-90
2023/08/09 00:52:26;;;;;;;;;;;10.50;79.50;;;;;;6251924;22;19933;-90
2023/08/09 00:54:53;;;;;;;;;;;10.60;79.20;;;;;;6227570;22;19926;-90
2023/08/09 00:57:18;;;;;;;;;;;10.50;79.40;;;;;;6241520;22;19919;-90
2023/08/09 00:59:44;;;;;;;;;;;10.50;79.30;;;;;;6249440;22;19945;-91
2023/08/09 01:02:10;;;;;;;;;;;10.50;79.20;;;;;;6247900;22;19958;-91
2023/08/09 01:04:36;;;;;;;;;;;10.50;79.50;;;;;;6250360;22;19923;-91
2023/08/09 01:07:08;;;;;;;;;;;10.50;79.30;;;;;;6242463;22;19925;-90
2023/08/09 01:09:34;;;;;;;;;;;10.50;79.30;;;;;;6252828;22;19968;-91
2023/08/09 01:12:08;;;;;;;;;;;10.50;79.40;;;;;;6252946;22;19923;-91
2023/08/09 01:14:36;;;;;;;;;;;10.50;79.50;;;;;;6221626;22;19927;-91
2023/08/09 01:17:01;;;;;;;;;;;10.50;79.50;;;;;;6241647;22;20430;-90
2023/08/09 01:19:33;;;;;;;;;;;10.50;79.60;;;;;;6245036;22;19920;-91
2023/08/09 01:22:04;;;;;;;;;;;10.50;79.10;;;;;;6247912;22;19925;-90
2023/08/09 01:24:30;;;;;;;;;;;10.40;78.90;;;;;;6277278;22;19926;-91
2023/08/09 01:26:56;;;;;;;;;;;10.50;78.70;;;;;;6246552;22;20617;-91
2023/08/09 01:29:22;;;;;;;;;;;10.50;78.50;;;;;;6250647;22;19972;-90
2023/08/09 01:31:47;;;;;;;;;;;10.50;78.60;;;;;;6253656;22;19947;-90
2023/08/09 01:34:13;;;;;;;;;;;10.50;78.50;;;;;;6251383;22;19949;-90
2023/08/09 01:36:41;;;;;;;;;;;10.50;78.40;;;;;;6248139;22;20518;-90
2023/08/09 01:39:10;;;;;;;;;;;10.60;78.30;;;;;;6251265;22;19919;-91
2023/08/09 01:41:37;;;;;;;;;;;10.60;78.20;;;;;;6252999;22;19925;-90
2023/08/09 01:44:07;;;;;;;;;;;10.60;78.10;;;;;;6251200;22;20304;-90
2023/08/09 01:46:33;;;;;;;;;;;10.60;78.50;;;;;;6247774;22;19921;-91
2023/08/09 01:49:09;;;;;;;;;;;10.60;78.50;;;;;;6249286;22;19926;-89
2023/08/09 01:51:35;;;;;;;;;;;10.50;78.30;;;;;;6252908;22;19954;-90
2023/08/09 01:54:01;;;;;;;;;;;10.50;78.10;;;;;;6251638;22;19930;-90
2023/08/09 01:56:30;;;;;;;;;;;10.50;78.20;;;;;;6223844;22;19915;-91
2023/08/09 01:58:55;;;;;;;;;;;10.50;78.10;;;;;;6223733;22;19968;-89
2023/08/09 02:01:22;;;;;;;;;;;10.50;78.10;;;;;;6252985;22;20322;-90
2023/08/09 02:03:49;;;;;;;;;;;10.50;78.00;;;;;;6226300;22;19919;-91
2023/08/09 02:06:15;;;;;;;;;;;10.50;78.00;;;;;;6250497;22;19926;-91
2023/08/09 02:08:44;;;;;;;;;;;10.40;78.30;;;;;;6245909;22;19918;-90
2023/08/09 02:11:09;;;;;;;;;;;10.40;78.40;;;;;;6252000;22;19941;-90
2023/08/09 02:13:35;;;;;;;;;;;10.40;78.60;;;;;;6239293;22;19919;-90
2023/08/09 02:16:04;;;;;;;;;;;10.30;78.50;;;;;;6252010;22;20444;-90
2023/08/09 02:18:30;;;;;;;;;;;10.30;78.50;;;;;;6245358;22;19919;-90
2023/08/09 02:20:58;;;;;;;;;;;10.20;78.90;;;;;;6277920;22;19919;-90
2023/08/09 02:23:24;;;;;;;;;;;10.20;79.00;;;;;;6251315;22;19948;-90
2023/08/09 02:25:52;;;;;;;;;;;10.10;78.90;;;;;;6252599;22;19923;-90
2023/08/09 02:28:18;;;;;;;;;;;10.10;79.10;;;;;;6243363;22;19919;-90
2023/08/09 02:30:46;;;;;;;;;;;10.10;79.00;;;;;;6253118;22;19938;-90
2023/08/09 02:33:14;;;;;;;;;;;10.00;79.00;;;;;;6251032;22;22918;-91
2023/08/09 02:35:54;;;;;;;;;;;10.10;79.20;;;;;;6253229;22;19950;-90
2023/08/09 02:38:21;;;;;;;;;;;10.00;79.00;;;;;;6247724;22;19919;-91
2023/08/09 02:40:46;;;;;;;;;;;10.00;79.10;;;;;;6279897;22;19926;-90
2023/08/09 02:43:12;;;;;;;;;;;10.00;79.20;;;;;;6253974;22;19918;-90
2023/08/09 02:45:38;;;;;;;;;;;10.00;79.00;;;;;;6279662;22;20345;-90
2023/08/09 02:48:04;;;;;;;;;;;10.00;79.10;;;;;;6219478;22;20238;-90
2023/08/09 02:50:30;;;;;;;;;;;10.00;79.20;;;;;;6252719;22;19922;-90
2023/08/09 02:52:55;;;;;;;;;;;10.00;79.20;;;;;;6251321;22;19919;-91
2023/08/09 02:55:21;;;;;;;;;;;10.00;79.20;;;;;;6252018;22;19918;-90
2023/08/09 02:57:47;;;;;;;;;;;10.00;79.30;;;;;;6243425;22;19919;-90
2023/08/09 03:00:16;;;;;;;;;;;10.00;79.20;;;;;;6278456;22;20337;-91
2023/08/09 03:02:41;;;;;;;;;;;10.00;79.20;;;;;;6250733;22;19918;-90
2023/08/09 03:05:08;;;;;;;;;;;10.00;79.10;;;;;;6252873;22;19923;-91
2023/08/09 03:07:35;;;;;;;;;;;9.90;79.10;;;;;;6243938;22;19919;-89
2023/08/09 03:10:03;;;;;;;;;;;9.90;79.20;;;;;;6278482;22;19923;-90
2023/08/09 03:12:29;;;;;;;;;;;9.80;79.20;;;;;;6250793;22;19965;-89
2023/08/09 03:14:54;;;;;;;;;;;9.80;79.20;;;;;;6252995;22;19997;-90
2023/08/09 03:17:20;;;;;;;;;;;9.80;79.20;;;;;;6243293;22;19923;-89
2023/08/09 03:19:46;;;;;;;;;;;9.70;79.20;;;;;;6252252;22;19930;-90
2023/08/09 03:22:12;;;;;;;;;;;9.70;79.20;;;;;;6250378;22;19946;-91
2023/08/09 03:24:38;;;;;;;;;;;9.70;79.30;;;;;;6254348;22;19941;-91
2023/08/09 03:27:04;;;;;;;;;;;9.70;79.40;;;;;;6245177;22;19919;-91
2023/08/09 03:29:29;;;;;;;;;;;9.70;79.30;;;;;;6254226;22;19926;-90
2023/08/09 03:31:55;;;;;;;;;;;9.70;79.40;;;;;;6254475;22;19929;-90
2023/08/09 03:34:21;;;;;;;;;;;9.70;79.20;;;;;;6251837;22;20377;-90
2023/08/09 03:36:46;;;;;;;;;;;9.70;79.30;;;;;;6247067;22;20002;-90
2023/08/09 03:39:12;;;;;;;;;;;9.70;79.40;;;;;;6228639;22;19945;-90
2023/08/09 03:41:38;;;;;;;;;;;9.70;79.40;;;;;;6253370;22;19923;-90
2023/08/09 03:44:06;;;;;;;;;;;9.60;79.50;;;;;;6252393;22;19923;-91
2023/08/09 03:46:34;;;;;;;;;;;9.60;79.50;;;;;;6248907;22;20539;-92
2023/08/09 03:49:00;;;;;;;;;;;9.60;79.50;;;;;;6250612;22;20275;-90
2023/08/09 03:51:26;;;;;;;;;;;9.60;79.50;;;;;;6253761;22;19999;-90
2023/08/09 03:53:52;;;;;;;;;;;9.60;79.50;;;;;;6252725;22;19919;-91
2023/08/09 03:56:18;;;;;;;;;;;9.60;79.40;;;;;;6251131;22;19922;-92
2023/08/09 03:58:43;;;;;;;;;;;9.60;79.40;;;;;;6246671;22;20249;-90
2023/08/09 04:01:09;;;;;;;;;;;9.60;79.30;;;;;;6253868;22;19918;-90
2023/08/09 04:03:35;;;;;;;;;;;9.60;79.40;;;;;;6252980;22;19933;-90
2023/08/09 04:06:02;;;;;;;;;;;9.60;79.60;;;;;;6254101;22;19923;-90
2023/08/09 04:08:29;;;;;;;;;;;9.60;79.40;;;;;;6245347;22;19919;-90
2023/08/09 04:10:57;;;;;;;;;;;9.60;79.50;;;;;;6254004;22;19965;-90
2023/08/09 04:13:23;;;;;;;;;;;9.50;79.60;;;;;;6251266;22;20253;-91
2023/08/09 04:15:49;;;;;;;;;;;9.60;79.50;;;;;;6253676;22;19919;-90
2023/08/09 04:18:17;;;;;;;;;;;9.50;79.50;;;;;;6244313;22;19923;-91
2023/08/09 04:20:43;;;;;;;;;;;9.50;79.40;;;;;;6254140;22;19918;-90
2023/08/09 04:23:09;;;;;;;;;;;9.50;79.40;;;;;;6250596;22;19919;-91
2023/08/09 04:25:35;;;;;;;;;;;9.50;79.30;;;;;;6229163;22;19957;-90
2023/08/09 04:28:01;;;;;;;;;;;9.50;79.40;;;;;;6244830;22;19923;-90
2023/08/09 04:30:30;;;;;;;;;;;9.60;79.50;;;;;;6253432;22;19926;-90
2023/08/09 04:32:55;;;;;;;;;;;9.60;79.70;;;;;;6252367;22;19925;-90
2023/08/09 04:35:22;;;;;;;;;;;9.60;79.70;;;;;;6253595;22;19989;-89
2023/08/09 04:37:47;;;;;;;;;;;9.60;79.50;;;;;;6271858;22;19969;-90
2023/08/09 04:40:13;;;;;;;;;;;9.60;79.40;;;;;;6253972;22;20483;-91
2023/08/09 04:42:40;;;;;;;;;;;9.60;79.40;;;;;;6250323;22;19923;-91
2023/08/09 04:45:07;;;;;;;;;;;9.60;79.50;;;;;;6253580;22;19918;-90
2023/08/09 04:47:33;;;;;;;;;;;9.70;79.60;;;;;;6243289;22;20326;-90
2023/08/09 04:49:58;;;;;;;;;;;9.60;79.50;;;;;;6253754;22;19940;-90
2023/08/09 04:52:24;;;;;;;;;;;9.70;79.60;;;;;;6251890;22;19946;-91
2023/08/09 04:54:52;;;;;;;;;;;9.70;79.70;;;;;;6253488;22;19976;-91
2023/08/09 04:57:18;;;;;;;;;;;9.70;79.80;;;;;;6225739;22;19961;-91
2023/08/09 04:59:44;;;;;;;;;;;9.80;79.70;;;;;;6230986;22;19923;-90
2023/08/09 05:02:09;;;;;;;;;;;9.80;79.80;;;;;;6251409;22;19933;-91
2023/08/09 05:04:35;;;;;;;;;;;9.80;80.00;;;;;;6253814;22;20009;-91
2023/08/09 05:07:02;;;;;;;;;;;9.90;80.00;;;;;;6246673;22;19998;-90
2023/08/09 05:09:28;;;;;;;;;;;10.00;80.10;;;;;;6251694;22;19942;-91
2023/08/09 05:11:54;;;;;;;;;;;10.00;80.10;;;;;;6228467;22;19923;-91
2023/08/09 05:14:19;;;;;;;;;;;10.00;80.20;;;;;;6251403;22;20004;-91
2023/08/09 05:16:45;;;;;;;;;;;10.10;80.30;;;;;;6247269;22;19986;-91
2023/08/09 05:19:11;;;;;;;;;;;10.10;80.00;;;;;;6250166;22;19925;-90
2023/08/09 05:21:37;;;;;;;;;;;10.20;79.90;;;;;;6252186;22;19961;-90
2023/08/09 05:24:03;;;;;;;;;;;10.20;80.00;;;;;;6250369;22;19964;-90
2023/08/09 05:26:31;;;;;;;;;;;10.30;80.00;;;;;;6249979;22;19954;-92
2023/08/09 05:28:59;;;;;;;;;;;10.40;80.00;;;;;;6248287;22;20005;-90
2023/08/09 05:31:24;;;;;;;;;;;10.60;80.10;;;;;;6227464;22;19923;-90
2023/08/09 05:33:50;;;;;;;;;;;10.70;79.80;;;;;;6251002;22;20360;-91
2023/08/09 05:36:16;;;;;;;;;;;10.80;79.50;;;;;;6252154;22;20238;-91
2023/08/09 05:38:42;;;;;;;;;;;10.90;79.40;;;;;;6246767;22;19972;-91
2023/08/09 05:41:08;;;;;;;;;;;11.10;78.90;;;;;;6251016;22;19919;-90
2023/08/09 05:43:36;;;;;;;;;;;11.30;78.50;;;;;;6249367;22;20097;-90
2023/08/09 05:46:01;;;;;;;;;;;11.50;78.40;;;;;;6252412;22;19923;-89
2023/08/09 05:48:29;;;;;;;;;;;11.70;77.60;;;;;;6240214;22;20295;-91
2023/08/09 05:50:55;;;;;;;;;;;11.90;76.70;;;;;;6249073;22;19919;-90
2023/08/09 05:53:21;;;;;;;;;;;12.00;76.50;;;;;;6247244;22;19926;-92
2023/08/09 05:55:47;;;;;;;;;;;12.20;76.20;;;;;;6249408;22;20406;-90
2023/08/09 05:58:13;;;;;;;;;;;12.30;76.20;;;;;;6241620;22;19953;-91
2023/08/09 06:00:39;;;;;;;;;;;12.50;76.20;;;;;;6251586;22;19929;-91
2023/08/09 06:03:05;;;;;;;;;;;12.50;75.80;;;;;;6221759;22;19993;-91
2023/08/09 06:05:31;;;;;;;;;;;12.70;75.60;;;;;;6276210;22;20334;-91
2023/08/09 06:07:57;;;;;;;;;;;12.80;75.40;;;;;;6241269;22;20345;-94
2023/08/09 06:10:25;;;;;;;;;;;12.90;75.00;;;;;;6250516;22;20249;-90
2023/08/09 06:12:52;;;;;;;;;;;13.10;74.90;;;;;;6247520;22;19923;-90
2023/08/09 06:15:18;;;;;;;;;;;13.10;74.60;;;;;;6253073;22;20317;-92
2023/08/09 06:17:49;;;;;;;;;;;13.30;74.90;;;;;;6201994;22;20337;-95
2023/08/09 06:20:16;;;;;;;;;;;13.30;74.70;;;;;;6231306;22;19922;-91
2023/08/09 06:22:41;;;;;;;;;;;13.40;74.70;;;;;;6251085;22;19984;-92
2023/08/09 06:25:10;;;;;;;;;;;13.50;74.40;;;;;;6225651;22;20373;-90
2023/08/09 06:27:36;;;;;;;;;;;13.60;74.40;;;;;;6242118;22;19919;-90
2023/08/09 06:30:03;;;;;;;;;;;13.60;74.30;;;;;;6276945;22;19919;-90
2023/08/09 06:32:28;;;;;;;;;;;13.70;74.70;;;;;;6224250;22;19919;-90
2023/08/09 06:34:54;;;;;;;;;;;13.90;74.40;;;;;;6251832;22;19993;-90
2023/08/09 06:37:20;;;;;;;;;;;13.90;74.20;;;;;;6242006;22;20338;-89
2023/08/09 06:39:49;;;;;;;;;;;13.90;74.00;;;;;;6278018;22;19950;-89
2023/08/09 06:42:16;;;;;;;;;;;14.00;74.00;;;;;;6251043;22;19926;-89
2023/08/09 06:44:42;;;;;;;;;;;14.10;74.00;;;;;;6252084;22;19919;-89
2023/08/09 06:47:10;;;;;;;;;;;14.20;73.80;;;;;;6228311;22;19969;-88
2023/08/09 06:49:35;;;;;;;;;;;14.20;74.00;;;;;;6253501;22;20326;-89
2023/08/09 06:52:01;;;;;;;;;;;14.30;74.20;;;;;;6253102;22;19929;-91
2023/08/09 06:54:27;;;;;;;;;;;14.40;73.60;;;;;;6225222;22;20356;-90
2023/08/09 06:56:53;;;;;;;;;;;14.50;73.80;;;;;;6244557;22;19915;-90
2023/08/09 06:59:22;;;;;;;;;;;14.50;73.40;;;;;;6234408;22;19946;-90
2023/08/09 07:01:48;;;;;;;;;;;14.60;73.70;;;;;;6244524;22;20398;-93
2023/08/09 07:08:08;;;;;;;;;;;;;;;;;;;;;
2023/08/09 07:10:43;;;;;;;;;;;14.80;73.30;;;;;;5951006;23;19930;-93
2023/08/09 07:13:16;;;;;;;;;;;14.90;73.20;;;;;;5994193;23;19922;-91
2023/08/09 07:15:42;;;;;;;;;;;15.00;72.60;;;;;;6000949;23;19933;-93
2023/08/09 07:18:11;;;;;;;;;;;15.00;72.90;;;;;;6076614;22;19923;-93
2023/08/09 07:20:48;;;;;;;;;;;15.10;72.60;;;;;;6212547;22;19923;-92
2023/08/09 07:23:21;;;;;;;;;;;15.20;72.30;;;;;;6203160;22;20006;-92
2023/08/09 07:26:02;;;;;;;;;;;;;;;;;;;;;
2023/08/09 07:28:34;;;;;;;;;;;15.30;72.50;;;;;;6228716;22;19922;-93
2023/08/09 07:31:02;;;;;;;;;;;15.30;72.50;;;;;;6216949;22;19918;-93
2023/08/09 07:39:28;;;;;;;;;;;;;;;;;;;;;
2023/08/09 07:42:19;;;;;;;;;;;15.60;71.40;;;;;;6172083;23;19924;-92
2023/08/09 07:45:48;;;;;;;;;;;;;;;;;;;;;
2023/08/09 07:48:15;;;;;;;;;;;15.60;72.10;;;;;;6074079;23;19932;-91
2023/08/09 07:54:24;;;;;;;;;;;;;;;;;;;;;
2023/08/09 08:00:57;;;;;;;;;;;16.10;69.80;;;;;;5834882;24;19928;-95
2023/08/09 08:06:48;;;;;;;;;;;16.20;69.00;;;;;;5983738;23;20200;-93
2023/08/09 08:09:34;;;;;;;;;;;16.40;68.30;;;;;;6043897;23;20038;-94
2023/08/09 08:12:51;;;;;;;;;;;;;;;;;;;;;
2023/08/09 08:19:17;;;;;;;;;;;16.50;68.10;;;;;;6144885;23;19959;-94
2023/08/09 08:22:10;;;;;;;;;;;16.70;67.60;;;;;;6140438;23;19920;-92
2023/08/09 08:24:45;;;;;;;;;;;;;;;;;;;;;
2023/08/09 08:27:12;;;;;;;;;;;16.90;67.10;;;;;;6170090;23;19920;-93
2023/08/09 08:29:38;;;;;;;;;;;16.80;67.50;;;;;;6148964;23;19920;-93
2023/08/09 08:32:25;;;;;;;;;;;16.80;67.80;;;;;;6184731;22;20512;-91
2023/08/09 08:49:42;;;;;;;;;;;17.00;67.10;;;;;;5951494;24;20250;-93
2023/08/09 09:19:57;;;;;;;;;;;;;;;;;;;;;
2023/08/09 09:25:27;;;;;;;;;;;17.00;64.90;;;;;;6046677;23;20355;-90
2023/08/09 09:28:05;;;;;;;;;;;17.10;65.20;;;;;;6060236;23;19972;-91
2023/08/09 09:30:58;;;;;;;;;;;17.20;64.10;;;;;;6066081;23;19984;-92
2023/08/09 09:33:34;;;;;;;;;;;17.20;64.40;;;;;;6057594;23;19921;-90
2023/08/09 09:36:00;;;;;;;;;;;17.20;63.60;;;;;;6071010;23;19947;-90
2023/08/09 09:38:29;;;;;;;;;;;17.20;63.90;;;;;;6066905;23;19957;-89
2023/08/09 09:41:06;;;;;;;;;;;17.20;64.40;;;;;;6067316;23;19920;-89
2023/08/09 09:43:38;;;;;;;;;;;17.20;64.10;;;;;;6049967;23;19948;-94
2023/08/09 09:46:06;;;;;;;;;;;17.20;63.90;;;;;;6043970;23;19936;-90
2023/08/09 09:48:35;;;;;;;;;;;17.30;63.60;;;;;;6018387;23;20499;-90
2023/08/09 09:51:28;;;;;;;;;;;17.40;63.90;;;;;;6081530;23;19925;-93
2023/08/09 09:57:26;;;;;;;;;;;17.60;63.50;;;;;;6077982;23;19924;-94
2023/08/09 10:00:20;;;;;;;;;;;17.80;64.40;;;;;;6018299;23;20147;-92
2023/08/09 10:02:56;;;;;;;;;;;17.80;63.10;;;;;;6031712;23;19932;-93
2023/08/09 10:05:26;;;;;;;;;;;17.90;62.70;;;;;;6047672;23;20732;-92
2023/08/09 10:08:04;;;;;;;;;;;;;;;;;;;;;
2023/08/09 10:11:12;;;;;;;;;;;18.00;63.30;;;;;;6087282;23;19925;-91
2023/08/09 10:13:50;;;;;;;;;;;18.20;63.70;;;;;;6061354;23;19921;-94
2023/08/09 10:16:27;;;;;;;;;;;18.40;63.50;;;;;;6053917;23;19929;-90
2023/08/09 10:19:04;;;;;;;;;;;18.40;61.50;;;;;;6047815;23;19926;-91
2023/08/09 10:21:34;;;;;;;;;;;18.20;61.20;;;;;;6061348;23;19929;-96
2023/08/09 10:27:44;;;;;;;;;;;18.10;61.40;;;;;;6116485;23;19924;-95
2023/08/09 10:30:16;;;;;;;;;;;18.20;61.60;;;;;;6087993;23;19933;-91
2023/08/09 10:33:06;;;;;;;;;;;18.30;61.10;;;;;;6087679;23;19929;-92
2023/08/09 10:38:53;;;;;;;;;;;18.20;61.10;;;;;;6119811;23;19997;-92
2023/08/09 10:41:37;;;;;;;;;;;18.10;61.40;;;;;;6087088;23;20000;-92
2023/08/09 10:44:06;;;;;;;;;;;18.10;61.60;;;;;;6065212;23;19927;-92
2023/08/09 10:46:36;;;;;;;;;;;18.20;61.80;;;;;;6106501;23;19921;-91
2023/08/09 10:49:05;;;;;;;;;;;18.20;61.40;;;;;;6066365;23;19924;-93
2023/08/09 10:51:33;;;;;;;;;;;18.20;62.00;;;;;;6082312;23;19925;-90
2023/08/09 10:54:03;;;;;;;;;;;18.20;61.90;;;;;;6079375;23;19932;-89
2023/08/09 10:56:29;;;;;;;;;;;18.20;62.80;;;;;;6104391;23;19928;-91
2023/08/09 10:58:55;;;;;;;;;;;18.30;62.00;;;;;;6099042;23;20209;-91
2023/08/09 11:01:25;;;;;;;;;;;18.30;61.20;;;;;;6081684;23;20351;-90
2023/08/09 11:03:53;;;;;;;;;;;18.30;61.80;;;;;;6078347;23;19963;-91
2023/08/09 11:06:38;;;;;;;;;;;18.20;61.80;;;;;;6055632;23;19936;-90
2023/08/09 11:09:21;;;;;;;;;;;18.30;61.90;;;;;;6078929;23;19932;-95
2023/08/09 11:11:58;;;;;;;;;;;18.40;62.50;;;;;;6087851;23;19921;-92
2023/08/09 11:14:24;;;;;;;;;;;18.50;62.20;;;;;;6050040;23;19935;-91
2023/08/09 11:17:04;;;;;;;;;;;18.50;63.10;;;;;;6062656;23;19921;-94
2023/08/09 11:19:31;;;;;;;;;;;18.50;62.30;;;;;;6081735;23;20644;-93
2023/08/09 11:22:00;;;;;;;;;;;18.40;61.90;;;;;;6082868;23;19927;-91
2023/08/09 11:24:26;;;;;;;;;;;18.40;61.70;;;;;;6082264;23;20106;-93
2023/08/09 11:26:55;;;;;;;;;;;18.40;62.50;;;;;;6055846;23;19924;-92
2023/08/09 11:30:14;;;;;;;;;;;18.30;62.10;;;;;;6105130;23;19996;-93
2023/08/09 11:32:53;;;;;;;;;;;18.30;63.30;;;;;;5956239;23;19976;-92
2023/08/09 11:35:44;;;;;;;;;;;;;;;;;;;;;
2023/08/09 11:38:31;;;;;;;;;;;18.10;64.30;;;;;;5987429;23;20058;-94
2023/08/09 11:40:59;;;;;;;;;;;18.00;64.30;;;;;;5973741;23;20767;-93
2023/08/09 11:43:43;;;;;;;;;;;18.00;64.00;;;;;;6067740;23;19925;-95
2023/08/09 11:49:40;;;;;;;;;;;18.00;63.40;;;;;;6106926;23;19967;-95
2023/08/09 11:55:24;;;;;;;;;;;18.00;64.20;;;;;;6107240;23;19925;-90
2023/08/09 11:57:50;;;;;;;;;;;18.00;63.30;;;;;;6075065;23;20284;-92
2023/08/09 12:00:38;;;;;;;;;;;17.90;62.20;;;;;;6058859;23;19924;-94
2023/08/09 12:03:22;;;;;;;;;;;17.90;61.90;;;;;;6101371;23;19925;-94
2023/08/09 12:06:24;;;;;;;;;;;;;;;;;;;;;
2023/08/09 12:08:48;;;;;;;;;;;17.80;62.70;;;;;;6069801;23;19924;-93
2023/08/09 12:11:16;;;;;;;;;;;18.00;63.50;;;;;;6058442;23;19936;-93
2023/08/09 12:13:42;;;;;;;;;;;18.00;63.20;;;;;;6069089;23;19925;-92
2023/08/09 12:16:44;;;;;;;;;;;;;;;;;;;;;
2023/08/09 12:19:10;;;;;;;;;;;18.00;64.20;;;;;;6085956;23;20340;-93
2023/08/09 12:21:42;;;;;;;;;;;18.00;63.30;;;;;;6084296;23;19955;-92
2023/08/09 12:24:16;;;;;;;;;;;18.00;63.50;;;;;;6084830;23;19955;-93
2023/08/09 12:26:45;;;;;;;;;;;18.00;63.60;;;;;;6111309;23;19929;-93
2023/08/09 12:29:10;;;;;;;;;;;18.20;62.00;;;;;;6056861;23;19924;-90
2023/08/09 12:31:37;;;;;;;;;;;18.20;60.90;;;;;;6086757;23;20482;-91
2023/08/09 12:34:03;;;;;;;;;;;18.20;60.70;;;;;;6107311;23;19956;-90
2023/08/09 12:36:38;;;;;;;;;;;18.20;60.70;;;;;;6082608;23;19970;-93
2023/08/09 12:39:04;;;;;;;;;;;18.30;60.30;;;;;;6080985;23;19928;-93
2023/08/09 12:41:30;;;;;;;;;;;18.40;60.20;;;;;;6079866;23;20021;-92
2023/08/09 12:43:55;;;;;;;;;;;18.50;62.50;;;;;;6091770;23;19925;-91
2023/08/09 12:49:16;;;;;;;;;;;18.80;62.80;;;;;;6061716;23;19924;-91
2023/08/09 12:51:42;;;;;;;;;;;19.00;63.00;;;;;;6086710;23;19951;-94
2023/08/09 12:54:13;;;;;;;;;;;19.10;61.40;;;;;;6083261;23;19956;-92
2023/08/09 12:56:39;;;;;;;;;;;19.10;61.90;;;;;;6058710;23;20020;-92
2023/08/09 12:59:09;;;;;;;;;;;19.10;62.70;;;;;;6081172;23;20000;-93
2023/08/09 13:01:36;;;;;;;;;;;19.10;62.80;;;;;;6085655;23;20024;-91
2023/08/09 13:04:06;;;;;;;;;;;19.10;63.00;;;;;;6070888;23;19927;-91
2023/08/09 13:06:34;;;;;;;;;;;19.10;63.60;;;;;;6106961;23;19928;-93
2023/08/09 13:09:00;;;;;;;;;;;19.10;63.00;;;;;;6038403;23;20390;-92
2023/08/09 13:11:29;;;;;;;;;;;19.10;63.60;;;;;;6082904;23;19968;-90
2023/08/09 13:13:54;;;;;;;;;;;19.10;64.50;;;;;;6080324;23;19925;-91
2023/08/09 13:16:24;;;;;;;;;;;19.20;63.20;;;;;;6083752;23;19921;-93
2023/08/09 13:18:58;;;;;;;;;;;19.20;62.80;;;;;;6069801;23;19999;-91
2023/08/09 13:21:29;;;;;;;;;;;19.10;63.00;;;;;;6083560;23;20447;-94
2023/08/09 13:23:55;;;;;;;;;;;19.10;63.20;;;;;;6059054;23;19920;-92
2023/08/09 13:26:20;;;;;;;;;;;19.10;61.50;;;;;;6081782;23;19925;-92
2023/08/09 13:28:46;;;;;;;;;;;19.00;62.60;;;;;;6076920;23;20237;-92
2023/08/09 13:31:23;;;;;;;;;;;18.90;62.50;;;;;;6087592;23;19925;-92
2023/08/09 13:40:11;;;;;;;;;;;18.90;62.00;;;;;;6028737;23;19921;-91
2023/08/09 13:42:56;;;;;;;;;;;18.80;62.50;;;;;;5973626;23;19954;-93
2023/08/09 13:45:25;;;;;;;;;;;18.80;60.70;;;;;;5999290;23;20062;-95
2023/08/09 13:47:53;;;;;;;;;;;18.80;60.40;;;;;;5975993;23;19926;-93
2023/08/09 13:50:25;;;;;;;;;;;18.90;61.20;;;;;;6042067;23;19925;-93
2023/08/09 13:56:13;;;;;;;;;;;18.90;60.20;;;;;;6037454;23;19925;-93
2023/08/09 13:58:45;;;;;;;;;;;18.90;60.60;;;;;;6018378;23;20118;-92
2023/08/09 14:01:49;;;;;;;;;;;18.90;60.60;;;;;;6045989;23;19935;-94
2023/08/09 14:04:26;;;;;;;;;;;18.90;60.10;;;;;;5965330;23;19925;-93
2023/08/09 14:06:58;;;;;;;;;;;19.00;61.00;;;;;;6004018;23;19929;-94
2023/08/09 14:09:45;;;;;;;;;;;19.00;61.40;;;;;;6062765;23;19949;-94
2023/08/09 14:12:52;;;;;;;;;;;19.10;61.40;;;;;;6098601;23;19921;-94
2023/08/09 14:15:58;;;;;;;;;;;;;;;;;;;;;
2023/08/09 14:18:48;;;;;;;;;;;19.20;59.60;;;;;;5959209;23;20034;-92
2023/08/09 14:21:18;;;;;;;;;;;19.30;59.20;;;;;;6030099;23;20333;-93
2023/08/09 14:24:36;;;;;;;;;;;19.20;59.10;;;;;;5974270;23;19972;-94
2023/08/09 14:27:04;;;;;;;;;;;19.20;58.60;;;;;;6046326;23;19928;-94
2023/08/09 14:32:49;;;;;;;;;;;19.30;59.60;;;;;;6029505;23;19926;-96
2023/08/09 14:35:19;;;;;;;;;;;19.30;60.00;;;;;;5978289;23;20922;-94
2023/08/09 14:37:57;;;;;;;;;;;19.30;59.80;;;;;;6090707;23;19929;-90
2023/08/09 14:40:27;;;;;;;;;;;19.20;59.60;;;;;;6058166;23;19931;-91
2023/08/09 14:42:53;;;;;;;;;;;19.20;57.90;;;;;;6069005;23;20108;-91
2023/08/09 14:45:19;;;;;;;;;;;19.20;58.90;;;;;;6080682;23;19928;-91
2023/08/09 14:47:45;;;;;;;;;;;19.30;59.50;;;;;;6074229;23;19924;-91
2023/08/09 14:50:13;;;;;;;;;;;19.40;58.60;;;;;;6077490;23;20892;-92
2023/08/09 14:52:45;;;;;;;;;;;19.50;58.30;;;;;;6079638;23;19949;-92
2023/08/09 14:55:11;;;;;;;;;;;19.50;59.40;;;;;;6080260;23;20612;-90
2023/08/09 14:57:39;;;;;;;;;;;19.50;58.00;;;;;;6049017;23;19932;-91
2023/08/09 15:00:09;;;;;;;;;;;19.50;58.20;;;;;;6081384;23;19931;-91
2023/08/09 15:02:37;;;;;;;;;;;19.50;58.20;;;;;;6079087;23;20017;-93
2023/08/09 15:05:06;;;;;;;;;;;19.70;58.60;;;;;;6056442;23;20008;-91
2023/08/09 15:07:32;;;;;;;;;;;19.70;57.00;;;;;;6063670;23;19925;-91
2023/08/09 15:10:00;;;;;;;;;;;19.70;57.60;;;;;;6081715;23;19980;-91
2023/08/09 15:12:26;;;;;;;;;;;19.70;56.80;;;;;;6078499;23;20576;-89
2023/08/09 15:14:57;;;;;;;;;;;19.50;57.60;;;;;;6083104;23;19925;-93
2023/08/09 15:17:24;;;;;;;;;;;19.50;58.20;;;;;;6074119;23;20801;-92
2023/08/09 15:19:50;;;;;;;;;;;19.70;57.50;;;;;;6080948;23;19926;-92
2023/08/09 15:22:25;;;;;;;;;;;19.70;56.60;;;;;;6105890;23;19932;-92
2023/08/09 15:25:07;;;;;;;;;;;19.80;56.60;;;;;;6082594;23;19921;-93
2023/08/09 15:27:36;;;;;;;;;;;19.90;58.20;;;;;;6064740;23;19992;-91
2023/08/09 15:30:04;;;;;;;;;;;20.00;56.50;;;;;;6078894;23;20016;-91
2023/08/09 15:32:33;;;;;;;;;;;20.00;57.60;;;;;;6069583;23;19925;-93
2023/08/09 15:35:19;;;;;;;;;;;20.00;57.70;;;;;;6081651;23;19921;-94
2023/08/09 15:37:51;;;;;;;;;;;20.10;58.70;;;;;;6078498;23;20307;-94
2023/08/09 15:40:22;;;;;;;;;;;20.30;59.00;;;;;;6081109;23;20004;-89
2023/08/09 15:42:51;;;;;;;;;;;20.30;57.40;;;;;;6043669;23;19967;-93
2023/08/09 15:45:19;;;;;;;;;;;20.10;58.30;;;;;;6080581;23;20336;-92
2023/08/09 15:47:46;;;;;;;;;;;20.00;59.50;;;;;;6035668;23;19994;-92
2023/08/09 15:50:13;;;;;;;;;;;20.00;59.10;;;;;;6081104;23;19995;-93
2023/08/09 15:52:46;;;;;;;;;;;20.00;58.70;;;;;;6043572;23;19924;-92
2023/08/09 15:55:14;;;;;;;;;;;20.00;58.90;;;;;;6037429;23;19951;-91
2023/08/09 15:57:45;;;;;;;;;;;19.90;58.70;;;;;;6078329;23;19921;-91
2023/08/09 16:00:12;;;;;;;;;;;19.90;59.20;;;;;;6083483;23;19925;-92
2023/08/09 16:02:38;;;;;;;;;;;19.90;59.80;;;;;;6067035;23;19984;-90
2023/08/09 16:05:11;;;;;;;;;;;19.70;59.90;;;;;;6082795;23;19929;-94
2023/08/09 16:15:22;;;;;;;;;;;;;;;;;;;;;
2023/08/09 16:21:58;;;;;;;;;;;;;;;;;;;;;
2023/08/09 16:25:31;;;;;;;;;;;;;;;;;;;;;
2023/08/09 16:32:58;;;;;;;;;;;19.50;60.40;;;;;;5863908;24;19978;-93
2023/08/09 16:35:26;;;;;;;;;;;19.50;61.40;;;;;;5901345;24;19930;-91
2023/08/09 16:37:52;;;;;;;;;;;19.50;61.70;;;;;;5986394;23;20245;-92
2023/08/09 16:40:17;;;;;;;;;;;19.40;61.10;;;;;;6147844;23;19928;-90
2023/08/09 16:42:45;;;;;;;;;;;19.30;61.80;;;;;;6073166;23;19921;-89
2023/08/09 16:45:11;;;;;;;;;;;19.20;62.30;;;;;;6096840;23;19921;-92
2023/08/09 16:47:37;;;;;;;;;;;19.10;62.20;;;;;;6055479;23;19935;-90
2023/08/09 16:50:03;;;;;;;;;;;19.20;62.20;;;;;;6075153;23;19968;-93
2023/08/09 16:52:29;;;;;;;;;;;19.30;62.50;;;;;;6073375;23;19921;-88